createdAt,value
2019-03-25T00:01:40.046Z,90.85
2019-03-25T00:04:12.797Z,92.19
2019-03-25T00:06:46.166Z,92.42
2019-03-25T00:09:18.921Z,93.05
2019-03-25T00:11:51.703Z,93.02
2019-03-25T00:14:24.304Z,93.27
2019-03-25T00:16:57.267Z,93.58
2019-03-25T00:19:29.591Z,94.43
2019-03-25T00:22:02.188Z,95.02
2019-03-25T00:24:39.012Z,94.68
2019-03-25T00:27:08.327Z,93.96
2019-03-25T00:29:40.522Z,93.00
2019-03-25T00:32:13.279Z,92.82
2019-03-25T00:34:45.425Z,92.60
2019-03-25T00:37:17.587Z,92.14
2019-03-25T00:39:50.328Z,91.03
2019-03-25T00:42:22.810Z,90.77
2019-03-25T00:44:55.195Z,91.60
2019-03-25T00:47:28.804Z,92.02
2019-03-25T00:50:01.199Z,93.00
2019-03-25T00:52:33.416Z,93.66
2019-03-25T00:55:05.722Z,94.49
2019-03-25T00:57:37.957Z,93.70
2019-03-25T01:00:11.553Z,92.42
2019-03-25T01:02:46.703Z,90.48
2019-03-25T01:05:19.739Z,88.16
2019-03-25T01:07:52.225Z,85.74
2019-03-25T01:10:24.571Z,83.59
2019-03-25T01:12:57.362Z,81.71
2019-03-25T01:15:29.686Z,80.14
2019-03-25T01:18:02.246Z,79.25
2019-03-25T01:20:34.451Z,78.37
2019-03-25T01:23:06.848Z,78.66
2019-03-25T01:25:39.079Z,78.47
2019-03-25T01:28:11.408Z,78.04
2019-03-25T01:30:43.576Z,77.51
2019-03-25T01:33:15.716Z,78.42
2019-03-25T01:35:47.959Z,78.78
2019-03-25T01:38:20.200Z,77.29
2019-03-25T01:40:52.482Z,75.66
2019-03-25T01:43:24.726Z,75.53
2019-03-25T01:45:56.998Z,74.73
2019-03-25T01:48:29.167Z,74.23
2019-03-25T01:51:01.877Z,73.06
2019-03-25T01:53:34.124Z,71.12
2019-03-25T01:56:06.367Z,70.24
2019-03-25T01:58:38.380Z,70.36
2019-03-25T02:01:10.663Z,69.86
2019-03-25T02:03:44.130Z,68.23
2019-03-25T02:06:16.373Z,67.23
2019-03-25T02:08:49.769Z,66.13
2019-03-25T02:11:22.427Z,66.63
2019-03-25T02:13:55.127Z,66.56
2019-03-25T02:16:27.402Z,68.52
2019-03-25T02:18:59.680Z,70.32
2019-03-25T02:21:31.924Z,71.66
2019-03-25T02:24:04.059Z,72.92
2019-03-25T02:26:36.246Z,72.87
2019-03-25T02:29:08.496Z,72.96
2019-03-25T02:31:40.779Z,71.38
2019-03-25T02:34:13.037Z,70.26
2019-03-25T02:36:45.341Z,69.23
2019-03-25T02:39:17.602Z,69.05
2019-03-25T02:41:49.849Z,68.36
2019-03-25T02:44:22.052Z,68.45
2019-03-25T02:46:54.416Z,68.31
2019-03-25T02:49:26.643Z,66.16
2019-03-25T02:51:58.896Z,65.56
2019-03-25T02:54:31.149Z,64.58
2019-03-25T02:57:04.729Z,64.29
2019-03-25T02:59:37.008Z,63.46
2019-03-25T03:02:09.235Z,63.50
2019-03-25T03:04:42.092Z,62.89
2019-03-25T03:07:16.414Z,62.30
2019-03-25T03:09:48.603Z,62.50
2019-03-25T03:12:21.983Z,62.04
2019-03-25T03:14:54.126Z,62.02
2019-03-25T03:17:27.770Z,61.70
2019-03-25T03:20:00.083Z,62.49
2019-03-25T03:22:32.507Z,62.67
2019-03-25T03:25:06.270Z,62.30
2019-03-25T03:27:38.490Z,62.81
2019-03-25T03:30:11.825Z,62.87
2019-03-25T03:32:44.000Z,63.05
2019-03-25T03:35:16.361Z,63.02
2019-03-25T03:37:49.520Z,63.33
2019-03-25T03:40:21.946Z,63.14
2019-03-25T03:42:55.267Z,63.41
2019-03-25T03:45:30.440Z,63.55
2019-03-25T03:48:08.099Z,63.35
2019-03-25T03:50:42.729Z,63.05
2019-03-25T03:53:18.056Z,63.11
2019-03-25T03:56:11.563Z,63.24
2019-03-25T03:58:32.584Z,63.42
2019-03-25T04:01:06.313Z,63.63
2019-03-25T04:03:40.662Z,64.33
2019-03-25T04:06:13.730Z,63.98
2019-03-25T04:08:45.935Z,64.65
2019-03-25T04:11:30.334Z,64.46
2019-03-25T04:14:03.271Z,63.49
2019-03-25T04:16:37.154Z,63.32
2019-03-25T04:19:11.665Z,63.16
2019-03-25T04:21:45.231Z,63.27
2019-03-25T04:24:17.446Z,63.21
2019-03-25T04:26:51.057Z,63.24
2019-03-25T04:29:23.276Z,62.70
2019-03-25T04:31:56.558Z,62.02
2019-03-25T04:34:31.390Z,61.61
2019-03-25T04:37:03.519Z,61.08
2019-03-25T04:39:35.627Z,61.07
2019-03-25T04:42:07.779Z,60.66
2019-03-25T04:44:40.044Z,60.85
2019-03-25T04:47:12.175Z,60.58
2019-03-25T04:49:45.273Z,60.42
2019-03-25T04:52:18.352Z,61.05
2019-03-25T04:54:50.500Z,62.07
2019-03-25T04:57:23.357Z,61.73
2019-03-25T04:59:56.869Z,62.24
2019-03-25T05:02:29.668Z,61.71
2019-03-25T05:05:04.119Z,61.68
2019-03-25T05:07:36.560Z,61.28
2019-03-25T05:10:11.630Z,60.35
2019-03-25T05:12:47.176Z,60.45
2019-03-25T05:15:19.447Z,59.28
2019-03-25T05:17:52.992Z,59.00
2019-03-25T05:20:25.263Z,59.61
2019-03-25T05:22:57.529Z,59.96
2019-03-25T05:25:30.108Z,58.75
2019-03-25T05:28:02.249Z,58.56
2019-03-25T05:30:34.378Z,57.89
2019-03-25T05:33:06.707Z,58.14
2019-03-25T05:35:40.096Z,58.08
2019-03-25T05:38:12.164Z,57.49
2019-03-25T05:40:44.842Z,55.92
2019-03-25T05:43:17.101Z,52.76
2019-03-25T05:45:49.787Z,53.35
2019-03-25T05:48:22.783Z,51.15
2019-03-25T05:50:56.222Z,50.44
2019-03-25T05:53:28.381Z,50.35
2019-03-25T05:56:00.538Z,49.86
2019-03-25T05:58:32.860Z,49.72
2019-03-25T06:01:05.183Z,48.48
2019-03-25T06:03:39.205Z,47.93
2019-03-25T06:06:12.128Z,47.88
2019-03-25T06:08:44.570Z,47.97
2019-03-25T06:11:16.947Z,47.54
2019-03-25T06:13:52.224Z,46.16
2019-03-25T06:16:25.969Z,47.09
2019-03-25T06:18:58.841Z,47.21
2019-03-25T06:21:32.285Z,45.59
2019-03-25T06:24:05.084Z,44.30
2019-03-25T06:26:37.873Z,44.30
2019-03-25T06:29:10.388Z,42.86
2019-03-25T06:31:42.894Z,41.56
2019-03-25T06:34:15.214Z,40.21
2019-03-25T06:36:47.552Z,39.22
2019-03-25T06:39:20.827Z,39.63
2019-03-25T06:41:53.248Z,38.74
2019-03-25T06:44:25.392Z,37.48
2019-03-25T06:46:58.156Z,36.20
2019-03-25T06:49:30.822Z,35.55
2019-03-25T06:52:03.028Z,35.94
2019-03-25T06:54:35.358Z,35.15
2019-03-25T06:57:07.773Z,34.90
2019-03-25T06:59:40.030Z,35.94
2019-03-25T07:02:13.385Z,35.24
2019-03-25T07:04:45.637Z,35.41
2019-03-25T07:07:18.015Z,35.25
2019-03-25T07:09:50.247Z,35.72
2019-03-25T07:12:23.535Z,34.95
2019-03-25T07:14:55.946Z,35.12
2019-03-25T07:17:31.074Z,34.25
2019-03-25T07:20:03.285Z,34.58
2019-03-25T07:22:35.987Z,34.32
2019-03-25T07:25:08.336Z,33.47
2019-03-25T07:27:40.548Z,31.98
2019-03-25T07:30:13.175Z,34.49
2019-03-25T07:32:46.017Z,33.07
2019-03-25T07:35:18.172Z,33.91
2019-03-25T07:37:50.484Z,33.41
2019-03-25T07:40:22.768Z,34.01
2019-03-25T07:42:55.089Z,33.74
2019-03-25T07:45:27.197Z,33.07
2019-03-25T07:47:59.437Z,33.46
2019-03-25T07:50:31.816Z,33.84
2019-03-25T07:53:05.212Z,33.34
2019-03-25T07:55:37.543Z,34.94
2019-03-25T07:58:09.892Z,33.51
2019-03-25T08:00:42.470Z,35.25
2019-03-25T08:03:14.514Z,34.02
2019-03-25T08:05:46.660Z,34.21
2019-03-25T08:08:21.171Z,34.25
2019-03-25T08:10:53.465Z,32.64
2019-03-25T08:13:25.744Z,33.08
2019-03-25T08:15:58.243Z,32.47
2019-03-25T08:18:30.540Z,33.92
2019-03-25T08:21:02.939Z,32.97
2019-03-25T08:23:35.216Z,33.42
2019-03-25T08:26:07.429Z,32.38
2019-03-25T08:28:40.184Z,33.61
2019-03-25T08:31:12.441Z,33.85
2019-03-25T08:33:44.657Z,33.42
2019-03-25T08:36:19.447Z,33.72
2019-03-25T08:38:51.966Z,34.86
2019-03-25T08:41:24.355Z,34.77
2019-03-25T08:43:56.540Z,35.88
2019-03-25T08:46:28.848Z,33.50
2019-03-25T08:49:01.039Z,33.03
2019-03-25T08:51:34.007Z,32.38
2019-03-25T08:54:06.002Z,32.31
2019-03-25T08:56:38.240Z,31.74
2019-03-25T08:59:11.834Z,31.19
2019-03-25T09:01:44.005Z,30.49
2019-03-25T09:04:16.161Z,31.84
2019-03-25T09:06:48.469Z,30.47
2019-03-25T09:09:20.661Z,29.87
2019-03-25T09:11:53.604Z,30.64
2019-03-25T09:14:25.861Z,31.07
2019-03-25T09:17:00.585Z,29.36
2019-03-25T09:19:35.147Z,29.89
2019-03-25T09:22:09.477Z,30.45
2019-03-25T09:24:42.282Z,30.25
2019-03-25T09:27:14.540Z,30.35
2019-03-25T09:29:46.918Z,30.01
2019-03-25T09:32:19.117Z,28.78
2019-03-25T09:34:51.462Z,29.97
2019-03-25T09:37:23.787Z,31.31
2019-03-25T09:39:56.050Z,29.51
2019-03-25T09:42:28.150Z,31.37
2019-03-25T09:45:00.375Z,31.48
2019-03-25T09:47:32.810Z,31.42
2019-03-25T09:50:05.372Z,32.35
2019-03-25T09:52:39.049Z,34.55
2019-03-25T09:55:11.653Z,32.53
2019-03-25T09:57:44.395Z,32.06
2019-03-25T10:00:16.695Z,32.39
2019-03-25T10:02:49.422Z,31.44
2019-03-25T10:05:21.564Z,31.72
2019-03-25T10:07:53.693Z,31.83
2019-03-25T10:10:25.792Z,32.50
2019-03-25T10:12:58.163Z,31.30
2019-03-25T10:15:31.112Z,30.99
2019-03-25T10:18:03.206Z,32.24
2019-03-25T10:20:37.193Z,29.88
2019-03-25T10:23:09.227Z,30.14
2019-03-25T10:25:42.696Z,30.39
2019-03-25T10:28:14.868Z,31.27
2019-03-25T10:30:47.551Z,30.12
2019-03-25T10:33:20.494Z,30.47
2019-03-25T10:35:53.989Z,31.34
2019-03-25T10:38:26.751Z,30.15
2019-03-25T10:40:59.213Z,30.23
2019-03-25T10:43:31.828Z,31.03
2019-03-25T10:46:03.858Z,31.04
2019-03-25T10:48:36.021Z,32.29
2019-03-25T10:51:10.935Z,32.69
2019-03-25T10:53:43.181Z,32.46
2019-03-25T10:56:15.175Z,32.77
2019-03-25T10:58:50.705Z,34.36
2019-03-25T11:01:23.482Z,33.75
2019-03-25T11:03:56.254Z,33.39
2019-03-25T11:06:28.437Z,33.58
2019-03-25T11:09:01.349Z,34.68
2019-03-25T11:11:35.562Z,36.23
2019-03-25T11:14:08.124Z,37.19
2019-03-25T11:16:41.585Z,38.45
2019-03-25T11:19:13.771Z,39.29
2019-03-25T11:21:46.691Z,41.45
2019-03-25T11:24:20.416Z,42.42
2019-03-25T11:26:52.421Z,42.50
2019-03-25T11:29:25.164Z,43.94
2019-03-25T11:31:58.515Z,45.63
2019-03-25T11:34:30.741Z,44.82
2019-03-25T11:37:04.066Z,44.05
2019-03-25T11:39:37.385Z,45.17
2019-03-25T11:42:10.366Z,47.24
2019-03-25T11:44:43.000Z,47.05
2019-03-25T11:47:18.270Z,46.21
2019-03-25T11:49:50.561Z,47.89
2019-03-25T11:52:22.657Z,47.28
2019-03-25T11:54:57.210Z,46.58
2019-03-25T11:57:29.392Z,46.84
2019-03-25T12:00:02.248Z,48.01
2019-03-25T12:02:35.383Z,48.76
2019-03-25T12:05:09.310Z,48.58
2019-03-25T12:07:43.259Z,48.42
2019-03-25T12:10:16.351Z,48.00
2019-03-25T12:12:49.108Z,47.74
2019-03-25T12:15:21.997Z,49.08
2019-03-25T12:17:54.259Z,50.03
2019-03-25T12:20:26.477Z,52.48
2019-03-25T12:22:58.621Z,53.38
2019-03-25T12:25:32.220Z,54.73
2019-03-25T12:28:05.458Z,55.69
2019-03-25T12:30:37.971Z,53.93
2019-03-25T12:33:10.227Z,54.78
2019-03-25T12:35:43.848Z,54.81
2019-03-25T12:38:16.732Z,55.65
2019-03-25T12:40:49.016Z,55.89
2019-03-25T12:43:21.221Z,55.45
2019-03-25T12:45:53.852Z,56.20
2019-03-25T12:48:26.671Z,56.21
2019-03-25T12:50:59.311Z,56.52
2019-03-25T12:53:31.425Z,55.64
2019-03-25T12:56:03.636Z,56.49
2019-03-25T12:58:36.265Z,57.82
2019-03-25T13:01:08.625Z,57.26
2019-03-25T13:03:41.039Z,58.53
2019-03-25T13:06:13.474Z,59.73
2019-03-25T13:08:45.689Z,57.67
2019-03-25T13:11:18.323Z,58.63
2019-03-25T13:13:52.128Z,56.93
2019-03-25T13:16:24.283Z,55.15
2019-03-25T13:18:56.663Z,55.15
2019-03-25T13:21:30.092Z,53.80
2019-03-25T13:24:02.186Z,53.82
2019-03-25T13:26:36.862Z,53.20
2019-03-25T13:29:09.061Z,52.87
2019-03-25T13:31:41.342Z,53.63
2019-03-25T13:34:13.539Z,55.56
2019-03-25T13:36:46.950Z,51.61
2019-03-25T13:39:20.415Z,52.00
2019-03-25T13:41:52.824Z,53.27
2019-03-25T13:44:25.230Z,52.45
2019-03-25T13:46:57.513Z,50.46
2019-03-25T13:49:29.795Z,48.84
2019-03-25T13:52:03.323Z,49.16
2019-03-25T13:54:35.554Z,49.63
2019-03-25T13:57:08.831Z,48.30
2019-03-25T13:59:41.086Z,49.68
2019-03-25T14:02:13.424Z,48.87
2019-03-25T14:04:45.636Z,51.52
2019-03-25T14:07:17.867Z,48.38
2019-03-25T14:09:50.118Z,48.47
2019-03-25T14:12:22.531Z,49.39
2019-03-25T14:14:54.905Z,49.93
2019-03-25T14:17:28.842Z,50.90
2019-03-25T14:20:01.271Z,50.90
2019-03-25T14:22:33.792Z,48.46
2019-03-25T14:25:06.530Z,47.89
2019-03-25T14:27:38.918Z,49.88
2019-03-25T14:30:14.830Z,50.32
2019-03-25T14:32:45.877Z,48.30
2019-03-25T14:35:18.129Z,45.14
2019-03-25T14:37:50.454Z,47.15
2019-03-25T14:40:22.577Z,47.08
2019-03-25T14:42:58.071Z,47.62
2019-03-25T14:45:30.242Z,47.69
2019-03-25T14:48:02.480Z,49.49
2019-03-25T14:50:34.774Z,49.00
2019-03-25T14:53:07.165Z,49.01
2019-03-25T14:55:39.354Z,47.82
2019-03-25T14:58:11.725Z,48.30
2019-03-25T15:00:45.071Z,48.59
2019-03-25T15:03:17.300Z,48.50
2019-03-25T15:05:49.660Z,44.58
2019-03-25T15:08:21.864Z,45.62
2019-03-25T15:10:54.069Z,45.25
2019-03-25T15:13:26.379Z,43.94
2019-03-25T15:15:58.800Z,46.04
2019-03-25T15:18:33.944Z,46.77
2019-03-25T15:21:08.169Z,46.25
2019-03-25T15:23:40.599Z,45.29
2019-03-25T15:26:13.208Z,43.41
2019-03-25T15:28:47.908Z,45.23
2019-03-25T15:31:21.264Z,42.31
2019-03-25T15:33:53.539Z,43.58
2019-03-25T15:36:25.784Z,44.68
2019-03-25T15:38:58.318Z,45.47
2019-03-25T15:41:31.433Z,43.27
2019-03-25T15:44:03.699Z,43.25
2019-03-25T15:46:38.174Z,41.85
2019-03-25T15:49:10.585Z,42.13
2019-03-25T15:51:43.871Z,40.80
2019-03-25T15:54:16.408Z,40.07
2019-03-25T15:56:48.690Z,39.54
2019-03-25T15:59:22.106Z,40.62
2019-03-25T16:01:54.322Z,41.39
2019-03-25T16:04:26.696Z,40.57
2019-03-25T16:06:58.987Z,41.35
2019-03-25T16:09:31.656Z,40.51
2019-03-25T16:12:05.639Z,42.24
2019-03-25T16:14:37.865Z,43.48
2019-03-25T16:17:10.189Z,41.12
2019-03-25T16:19:42.291Z,39.67
2019-03-25T16:22:14.495Z,40.19
2019-03-25T16:24:46.687Z,37.35
2019-03-25T16:27:18.937Z,36.65
2019-03-25T16:29:51.178Z,38.67
2019-03-25T16:32:23.748Z,40.89
2019-03-25T16:34:55.921Z,41.41
2019-03-25T16:37:28.118Z,42.48
2019-03-25T16:40:01.734Z,42.93
2019-03-25T16:42:34.000Z,41.49
2019-03-25T16:45:08.072Z,43.15
2019-03-25T16:47:40.475Z,42.92
2019-03-25T16:50:12.771Z,41.63
2019-03-25T16:52:45.592Z,41.10
2019-03-25T16:55:18.961Z,40.52
2019-03-25T16:57:51.290Z,41.01
2019-03-25T17:00:27.560Z,40.21
2019-03-25T17:02:57.747Z,38.48
2019-03-25T17:05:31.316Z,38.37
2019-03-25T17:08:04.543Z,37.21
2019-03-25T17:10:38.316Z,36.60
2019-03-25T17:13:10.995Z,37.48
2019-03-25T17:15:43.528Z,36.64
2019-03-25T17:18:15.762Z,35.59
2019-03-25T17:20:48.305Z,33.77
2019-03-25T17:23:20.608Z,33.70
2019-03-25T17:25:53.525Z,33.26
2019-03-25T17:28:25.757Z,33.52
2019-03-25T17:30:57.982Z,33.63
2019-03-25T17:33:30.131Z,35.00
2019-03-25T17:36:02.361Z,36.41
2019-03-25T17:38:34.585Z,38.73
2019-03-25T17:41:07.211Z,41.89
2019-03-25T17:43:39.594Z,45.48
2019-03-25T17:46:12.999Z,48.09
2019-03-25T17:48:45.439Z,51.04
2019-03-25T17:51:18.171Z,53.39
2019-03-25T17:53:52.028Z,56.47
2019-03-25T17:56:24.329Z,58.13
2019-03-25T17:58:56.704Z,59.03
2019-03-25T18:01:32.946Z,58.53
2019-03-25T18:04:06.773Z,60.17
2019-03-25T18:06:39.164Z,61.78
2019-03-25T18:09:12.172Z,63.63
2019-03-25T18:11:44.602Z,65.01
2019-03-25T18:14:17.170Z,66.66
2019-03-25T18:16:49.486Z,68.42
2019-03-25T18:19:21.720Z,69.80
2019-03-25T18:21:53.957Z,70.31
2019-03-25T18:24:26.567Z,71.36
2019-03-25T18:26:58.819Z,74.01
2019-03-25T18:29:31.699Z,75.20
2019-03-25T18:32:04.061Z,75.95
2019-03-25T18:34:36.255Z,76.58
2019-03-25T18:37:08.458Z,76.93
2019-03-25T18:39:40.729Z,77.94
2019-03-25T18:42:14.168Z,78.53
2019-03-25T18:44:46.530Z,81.66
2019-03-25T18:47:18.807Z,83.21
2019-03-25T18:49:52.457Z,84.93
2019-03-25T18:52:25.652Z,86.99
2019-03-25T18:55:00.524Z,92.34
2019-03-25T18:57:33.521Z,97.72
2019-03-25T19:00:06.850Z,100.00
2019-03-25T19:02:39.277Z,100.00
2019-03-25T19:05:11.692Z,100.00
2019-03-25T19:07:47.938Z,100.00
2019-03-25T19:10:27.949Z,100.00
2019-03-25T19:13:01.862Z,100.00
2019-03-25T19:15:34.306Z,100.00
2019-03-25T19:18:06.432Z,100.00
2019-03-25T19:20:39.711Z,100.00
2019-03-25T19:23:13.347Z,100.00
2019-03-25T19:25:45.522Z,100.00
2019-03-25T19:28:19.573Z,100.00
2019-03-25T19:30:51.891Z,100.00
2019-03-25T19:33:24.547Z,100.00
2019-03-25T19:35:56.982Z,100.00
2019-03-25T19:38:29.498Z,100.00
2019-03-25T19:41:01.835Z,100.00
2019-03-25T19:43:34.185Z,100.00
2019-03-25T19:46:06.501Z,100.00
2019-03-25T19:48:38.797Z,100.00
2019-03-25T19:51:11.347Z,100.00
2019-03-25T19:53:43.646Z,100.00
2019-03-25T19:56:15.867Z,100.00
2019-03-25T19:58:49.043Z,100.00
2019-03-25T20:01:21.370Z,100.00
2019-03-25T20:03:54.857Z,100.00
2019-03-25T20:06:27.201Z,100.00
2019-03-25T20:08:59.479Z,100.00
2019-03-25T20:11:31.905Z,100.00
2019-03-25T20:14:05.180Z,100.00
2019-03-25T20:16:37.567Z,100.00
2019-03-25T20:19:09.831Z,100.00
2019-03-25T20:21:43.706Z,100.00
2019-03-25T20:24:16.782Z,100.00
2019-03-25T20:26:49.113Z,100.00
2019-03-25T20:29:21.618Z,100.00
2019-03-25T20:31:53.887Z,100.00
2019-03-25T20:34:26.092Z,100.00
2019-03-25T20:36:58.366Z,100.00
2019-03-25T20:39:30.858Z,100.00
2019-03-25T20:42:03.697Z,100.00
2019-03-25T20:44:35.991Z,100.00
2019-03-25T20:47:09.488Z,100.00
2019-03-25T20:49:43.416Z,100.00
2019-03-25T20:52:15.649Z,100.00
2019-03-25T20:54:49.232Z,100.00
2019-03-25T20:57:21.637Z,100.00
2019-03-25T20:59:54.606Z,100.00
2019-03-25T21:02:27.069Z,100.00
2019-03-25T21:05:00.710Z,100.00
2019-03-25T21:07:33.206Z,100.00
2019-03-25T21:10:06.620Z,100.00
2019-03-25T21:12:39.194Z,100.00
2019-03-25T21:15:11.813Z,100.00
2019-03-25T21:17:44.336Z,100.00
2019-03-25T21:20:16.795Z,100.00
2019-03-25T21:22:51.573Z,100.00
2019-03-25T21:25:23.893Z,100.00
2019-03-25T21:27:56.233Z,100.00
2019-03-25T21:30:30.260Z,100.00
2019-03-25T21:33:03.071Z,100.00
2019-03-25T21:35:35.341Z,100.00
2019-03-25T21:38:07.912Z,100.00
2019-03-25T21:40:40.229Z,100.00
2019-03-25T21:43:12.530Z,100.00
2019-03-25T21:45:44.989Z,100.00
2019-03-25T21:48:17.964Z,100.00
2019-03-25T21:50:50.536Z,100.00
2019-03-25T21:53:24.969Z,100.00
2019-03-25T21:55:57.897Z,100.00
2019-03-25T21:58:31.828Z,100.00
2019-03-25T22:01:04.335Z,100.00
2019-03-25T22:03:36.785Z,100.00
2019-03-25T22:06:10.297Z,100.00
2019-03-25T22:08:43.263Z,100.00
2019-03-25T22:11:16.631Z,100.00
2019-03-25T22:13:49.093Z,100.00
2019-03-25T22:16:21.319Z,100.00
2019-03-25T22:18:53.622Z,100.00
2019-03-25T22:21:26.114Z,100.00
2019-03-25T22:23:58.562Z,100.00
2019-03-25T22:26:30.958Z,100.00
2019-03-25T22:29:03.268Z,100.00
2019-03-25T22:31:35.549Z,100.00
2019-03-25T22:34:08.305Z,100.00
2019-03-25T22:36:40.498Z,100.00
2019-03-25T22:39:12.768Z,100.00
2019-03-25T22:41:45.053Z,100.00
2019-03-25T22:44:18.508Z,100.00
2019-03-25T22:46:50.604Z,100.00
2019-03-25T22:49:24.172Z,100.00
2019-03-25T22:51:57.403Z,100.00
2019-03-25T22:54:29.629Z,100.00
2019-03-25T22:57:03.030Z,100.00
2019-03-25T22:59:35.329Z,100.00
2019-03-25T23:02:09.013Z,100.00
2019-03-25T23:04:42.154Z,100.00
2019-03-25T23:07:14.569Z,100.00
2019-03-25T23:09:46.872Z,100.00
2019-03-25T23:12:19.195Z,100.00
2019-03-25T23:14:51.518Z,100.00
2019-03-25T23:17:23.757Z,100.00
2019-03-25T23:19:57.305Z,100.00
2019-03-25T23:22:30.223Z,100.00
2019-03-25T23:25:03.073Z,100.00
2019-03-25T23:27:35.224Z,100.00
2019-03-25T23:30:11.126Z,100.00
2019-03-25T23:32:44.577Z,100.00
2019-03-25T23:35:17.076Z,100.00
2019-03-25T23:37:49.990Z,100.00
2019-03-25T23:40:22.807Z,100.00
2019-03-25T23:42:56.293Z,100.00
2019-03-25T23:45:29.214Z,100.00
2019-03-25T23:48:01.726Z,100.00
2019-03-25T23:50:36.579Z,100.00
2019-03-25T23:53:08.915Z,100.00
2019-03-25T23:55:41.289Z,100.00
2019-03-25T23:58:13.610Z,100.00
